Latest Weather Observations for Creal Reef

IDQ60801

Issued at 12:05 pm EST Thursday 2 October 2014 (issued every 30 minutes, with the page automatically refreshed every 10 minutes)

About weather observations | Map of weather stations | Latest weather observations for QLD | Other Formats
Station Details ID: 200736 Name: CREAL REEF Lat: -20.53 Lon: 150.38 Height: 1.7 m
Data from the previous 72 hours. | See also: Recent months for locations in Queensland
Date/Time
EST
Temp
°C
App
Temp
°C
Dew
Point
Rel
Hum
%
Delta-T
°C
Wind Press
QNH
hPa
Press
MSL
hPa
Rain
since 9 am
mm
Dir
 
Spd
km/h
Gust
km/h
Spd
kts
Gust
kts
02/12:00pm 22.9 - - - - ESE 20 24 11 13 1017.6 - -
02/11:30am 22.9 - - - - ESE 19 22 10 12 1017.9 - -
02/11:20am 23.1 - - - - ESE 19 - 10 - - 1018.0 -
02/11:00am 23.0 - - - - ESE 19 24 10 13 1018.3 - -
02/10:30am 23.1 - - - - ESE 15 20 8 11 1018.4 - -
02/10:20am 23.1 - - - - ESE 15 - 8 - - 1018.3 -
02/10:00am 23.2 - - - - ESE 9 13 5 7 1018.2 - -
02/09:30am 22.9 - - - - E 11 15 6 8 1017.6 - -
02/09:20am 22.9 - - - - ESE 11 - 6 - - 1017.8 -
02/09:00am 23.0 - - - - SE 9 13 5 7 1017.9 - -
02/08:30am 23.0 - - - - ESE 11 13 6 7 1017.9 - -
02/08:20am 22.8 - - - - ESE 9 - 5 - - 1017.7 -
02/08:00am 22.8 - - - - ESE 9 11 5 6 1017.5 - -
02/07:30am 22.7 - - - - ESE 9 11 5 6 1017.3 - -
02/07:20am 23.2 - - - - E 7 - 4 - - 1017.0 -
02/07:00am 22.8 - - - - E 7 9 4 5 1016.9 - -
02/06:30am 22.5 - - - - ENE 7 9 4 5 1016.5 - -
02/06:20am 22.5 - - - - E 7 9 4 5 1016.4 1016.3 -
02/06:00am 22.1 - - - - NE 7 11 4 6 1016.1 - -
02/05:30am 21.9 - - - - NE 7 9 4 5 1015.8 - -
02/05:20am 21.9 - - - - ENE 9 - 5 - - 1015.7 -
02/05:00am 21.9 - - - - NE 9 11 5 6 1015.7 - -
02/04:30am 22.1 - - - - NE 11 15 6 8 1015.3 - -
02/04:20am 21.9 - - - - NE 11 - 6 - - 1015.2 -
02/04:00am 22.0 - - - - NE 9 13 5 7 1015.1 - -
02/03:30am 22.0 - - - - ENE 13 17 7 9 1015.1 - -
02/03:20am 22.0 - - - - ENE 11 - 6 - - 1015.0 -
02/03:00am 22.0 - - - - ENE 15 20 8 11 1015.1 - -
02/02:30am 22.0 - - - - ENE 13 17 7 9 1015.2 - -
02/02:20am 22.0 - - - - NE 13 - 7 - - 1015.1 -
02/02:00am 22.1 - - - - ENE 13 17 7 9 1015.3 - -
02/01:30am 22.2 - - - - ENE 15 19 8 10 1015.7 - -
02/01:20am 22.0 - - - - ENE 15 - 8 - - 1015.7 -
02/01:00am 22.1 - - - - ENE 17 22 9 12 1015.9 - -
02/12:30am 22.2 - - - - ENE 19 22 10 12 1016.0 - -
02/12:20am 22.3 - - - - ENE 20 - 11 - - 1016.0 -
02/12:00am 22.2 - - - - ENE 19 24 10 13 1016.2 - -
 
Date/Time
EST
Temp
°C
App
Temp
°C
Dew
Point
Rel
Hum
%
Delta-T
°C
Wind Press
QNH
hPa
Press
MSL
hPa
Rain
since 9 am
mm
Dir
 
Spd
km/h
Gust
km/h
Spd
kts
Gust
kts
01/11:30pm 22.3 - - - - E 19 22 10 12 1016.4 - -
01/11:20pm 22.2 - - - - E 17 - 9 - - 1016.3 -
01/11:00pm 22.2 - - - - E 19 20 10 11 1016.4 - -
01/10:30pm 22.3 - - - - E 19 22 10 12 1016.4 - -
01/10:20pm 22.3 - - - - E 20 - 11 - - 1016.3 -
01/10:00pm 22.3 - - - - ESE 19 20 10 11 1016.6 - -
01/09:30pm 22.4 - - - - ESE 19 20 10 11 1016.7 - -
01/09:20pm 22.3 - - - - E 19 - 10 - - 1016.7 -
01/09:00pm 22.5 - - - - ESE 17 20 9 11 1016.8 - -
01/08:30pm 22.6 - - - - SE 17 20 9 11 1016.8 - -
01/08:20pm 22.6 - - - - SE 17 - 9 - - 1016.6 -
01/08:00pm 22.7 - - - - SE 15 20 8 11 1016.4 - -
01/07:30pm 22.7 - - - - SE 17 20 9 11 1016.3 - -
01/07:20pm 22.8 - - - - ESE 17 - 9 - - 1016.2 -
01/07:00pm 22.7 - - - - SE 17 19 9 10 1016.1 - -
01/06:30pm 22.7 - - - - SE 17 20 9 11 1015.9 - -
01/06:20pm 22.7 - - - - SE 17 - 9 - - 1015.7 -
01/06:00pm 22.6 - - - - SE 17 20 9 11 1015.6 - -
01/05:30pm 22.8 - - - - SE 17 20 9 11 1015.5 - -
01/05:20pm 22.8 - - - - SE 19 - 10 - - 1015.4 -
01/05:00pm 22.8 - - - - SSE 19 22 10 12 1015.4 - -
01/04:30pm 22.9 - - - - SSE 19 24 10 13 1015.6 - -
01/04:20pm 22.9 - - - - SSE 17 - 9 - - 1015.5 -
01/04:00pm 22.9 - - - - SSE 17 22 9 12 1015.6 - -
01/03:30pm 23.0 - - - - SSE 17 20 9 11 1015.6 - -
01/03:20pm 23.0 - - - - SSE 19 - 10 - - 1015.6 -
01/03:00pm 23.0 - - - - SSE 19 24 10 13 1015.7 - -
01/02:30pm 23.1 - - - - SSE 17 22 9 12 1015.8 - -
01/02:20pm 23.0 - - - - SSE 17 - 9 - - 1015.8 -
01/02:00pm 23.0 - - - - SE 19 20 10 11 1016.1 - -
01/01:30pm 23.2 - - - - SSE 19 24 10 13 1016.3 - -
01/01:20pm 23.2 - - - - SE 17 - 9 - - 1016.4 -
01/01:00pm 23.0 - - - - SE 17 20 9 11 1016.8 - -
01/12:30pm 23.0 - - - - ESE 15 17 8 9 1017.2 - -
01/12:20pm 23.0 - - - - SE 17 - 9 - - 1017.3 -
01/12:00pm 23.1 - - - - SE 15 20 8 11 1017.7 - -
01/11:30am 23.2 - - - - SE 19 22 10 12 1018.2 - -
01/11:20am 23.3 - - - - SSE 17 - 9 - - 1018.2 -
01/11:00am 23.0 - - - - SE 19 22 10 12 1018.6 - -
01/10:30am 23.0 - - - - SE 19 22 10 12 1018.8 - -
01/10:20am 22.9 - - - - SE 19 - 10 - - 1018.8 -
01/10:00am 23.0 - - - - ESE 20 22 11 12 1018.9 - -
01/09:30am 23.0 - - - - ESE 20 24 11 13 1019.0 - -
01/09:20am 23.1 - - - - ESE 20 - 11 - - 1018.9 -
01/09:00am 23.0 - - - - ESE 20 24 11 13 1019.0 - -
01/08:30am 23.1 - - - - ESE 20 24 11 13 1019.0 - -
01/08:20am 23.1 - - - - ESE 19 - 10 - - 1018.9 -
01/08:00am 23.0 - - - - ESE 20 24 11 13 1018.8 - -
01/07:30am 22.8 - - - - ESE 24 28 13 15 1018.5 - -
01/07:20am 22.8 - - - - ESE 22 - 12 - - 1018.3 -
01/07:00am 23.0 - - - - ESE 19 24 10 13 1018.1 - -
01/06:30am 22.5 - - - - SE 26 30 14 16 1017.8 - -
01/06:20am 22.4 - - - - ESE 26 - 14 - - 1017.6 -
01/06:00am 22.7 - - - - SSE 24 30 13 16 1017.6 - -
01/05:30am 22.3 - - - - SSE 28 33 15 18 1017.4 - -
01/05:20am 22.3 - - - - SSE 26 - 14 - - 1017.3 -
01/05:00am 22.2 - - - - SSE 22 28 12 15 1017.4 - -
01/04:30am 22.1 - - - - SSE 26 30 14 16 1017.2 - -
01/04:20am 22.1 - - - - SSE 24 - 13 - - 1017.1 -
01/04:00am 22.2 - - - - SSE 24 30 13 16 1017.0 - -
01/03:30am 22.2 - - - - SSE 24 30 13 16 1017.0 - -
01/03:20am 22.3 - - - - SSE 24 - 13 - - 1017.0 -
01/03:00am 22.4 - - - - SE 24 28 13 15 1017.1 - -
01/02:30am 22.4 - - - - SE 24 30 13 16 1017.2 - -
01/02:20am 22.4 - - - - SE 26 - 14 - - 1017.2 -
01/02:00am 22.5 - - - - SE 26 30 14 16 1017.5 - -
01/01:30am 22.4 - - - - ESE 22 26 12 14 1017.6 - -
01/01:20am 22.5 - - - - ESE 20 - 11 - - 1017.6 -
01/01:00am 22.6 - - - - SE 19 22 10 12 1017.9 - -
01/12:30am 22.4 - - - - SSE 17 20 9 11 1018.2 - -
01/12:20am 22.3 - - - - S 17 - 9 - - 1018.2 -
01/12:00am 22.2 - - - - SSE 13 17 7 9 1018.5 - -
 
Date/Time
EST
Temp
°C
App
Temp
°C
Dew
Point
Rel
Hum
%
Delta-T
°C
Wind Press
QNH
hPa
Press
MSL
hPa
Rain
since 9 am
mm
Dir
 
Spd
km/h
Gust
km/h
Spd
kts
Gust
kts
30/11:30pm 22.2 - - - - SE 13 19 7 10 1018.8 - -
30/11:20pm 22.3 - - - - ENE 17 - 9 - - 1018.9 -
30/11:00pm 22.5 - - - - ESE 19 22 10 12 1019.0 - -
30/10:30pm 22.6 - - - - SE 19 20 10 11 1019.1 - -
30/10:20pm 22.5 - - - - SE 19 - 10 - - 1019.0 -
30/10:00pm 22.6 - - - - SE 19 20 10 11 1019.1 - -
30/09:30pm 22.5 - - - - SE 22 26 12 14 1019.2 - -
30/09:20pm 22.5 - - - - ESE 22 - 12 - - 1019.1 -
30/09:00pm 22.6 - - - - SE 20 24 11 13 1019.2 - -
30/08:30pm 22.5 - - - - ESE 24 28 13 15 1019.0 - -
30/08:20pm 22.7 - - - - SE 22 - 12 - - 1018.9 -
30/08:00pm 22.6 - - - - ESE 20 24 11 13 1018.7 - -
30/07:30pm 22.5 - - - - ESE 20 24 11 13 1018.3 - -
30/07:20pm 22.6 - - - - ESE 20 - 11 - - 1018.1 -
30/07:00pm 22.7 - - - - ESE 22 26 12 14 1018.1 - -
30/06:30pm 22.5 - - - - ESE 20 24 11 13 1017.7 - -
30/06:20pm 22.5 - - - - SE 20 - 11 - - 1017.6 -
30/06:00pm 22.6 - - - - SE 20 24 11 13 1017.4 - -
30/05:30pm 22.7 - - - - SE 22 26 12 14 1017.1 - -
30/05:20pm 22.6 - - - - SE 24 - 13 - - 1016.9 -
30/05:00pm 22.6 - - - - SE 24 28 13 15 1016.8 - -
30/04:30pm 22.8 - - - - SE 20 26 11 14 1016.7 - -
30/04:20pm 22.7 - - - - SE 22 - 12 - - 1016.5 -
30/04:00pm 22.7 - - - - SE 22 26 12 14 1016.7 - -
30/03:30pm 22.8 - - - - SE 20 26 11 14 1016.7 - -
30/03:20pm 22.8 - - - - SE 20 - 11 - - 1016.6 -
30/03:00pm 22.9 - - - - SSE 20 24 11 13 1016.7 - -
30/02:30pm 22.8 - - - - SE 20 22 11 12 1016.8 - -
30/02:20pm 22.9 - - - - SE 20 - 11 - - 1016.9 -
30/02:00pm 22.9 - - - - SE 20 22 11 12 1017.1 - -
30/01:30pm 22.7 - - - - ESE 20 24 11 13 1017.6 - -
30/01:20pm 22.9 - - - - E 20 - 11 - - 1017.7 -
30/01:00pm 22.9 - - - - E 20 30 11 16 1017.9 - -
30/12:30pm 22.8 - - - - ESE 20 22 11 12 1018.3 - -
30/12:20pm 22.8 - - - - ESE 20 - 11 - - 1018.4 -
30/12:00pm 22.9 - - - - ESE 20 24 11 13 1018.8 - -
30/11:30am 22.9 - - - - ESE 24 28 13 15 1019.4 - -
30/11:20am 22.9 - - - - E 24 - 13 - - 1019.4 -
30/11:00am 23.1 - - - - E 20 28 11 15 1019.7 - -
30/10:30am 23.0 - - - - E 26 28 14 15 1020.0 - -
30/10:20am 23.0 - - - - E 24 - 13 - - 1020.0 -
30/10:00am 23.1 - - - - E 26 32 14 17 1020.3 - -
30/09:30am 23.1 - - - - E 22 30 12 16 1020.4 - -
30/09:20am 23.1 - - - - E 20 - 11 - - 1020.4 -
30/09:00am 23.0 - - - - E 24 30 13 16 1020.5 - -
30/08:30am 22.9 - - - - ESE 24 28 13 15 1020.2 - -
30/08:20am 22.9 - - - - ESE 22 - 12 - - 1020.0 -
30/08:00am 22.8 - - - - ESE 24 28 13 15 1020.1 - -
30/07:30am 22.8 - - - - ESE 28 32 15 17 1019.8 - -
30/07:20am 22.9 - - - - E 26 - 14 - - 1019.6 -
30/07:00am 22.7 - - - - E 28 35 15 19 1019.4 - -
30/06:30am 22.6 - - - - E 28 32 15 17 1019.0 - -
30/06:20am 22.7 - - - - E 28 - 15 - - 1018.9 -
30/06:00am 22.7 - - - - ESE 24 30 13 16 1018.6 - -
30/05:30am 22.5 - - - - E 28 33 15 18 1018.3 - -
30/05:20am 22.4 - - - - E 26 - 14 - - 1018.1 -
30/05:00am 22.3 - - - - E 20 24 11 13 1017.9 - -
30/04:30am 22.4 - - - - ESE 26 32 14 17 1017.8 - -
30/04:20am 22.4 - - - - ESE 26 - 14 - - 1017.5 -
30/04:00am 22.6 - - - - ESE 26 30 14 16 1017.5 - -
30/03:30am 22.6 - - - - ESE 30 35 16 19 1017.5 - -
30/03:20am 22.6 - - - - E 32 - 17 - - 1017.4 -
30/03:00am 22.6 - - - - ESE 33 37 18 20 1017.6 - -
30/02:30am 22.6 - - - - ESE 33 37 18 20 1017.7 - -
30/02:20am 22.6 - - - - ESE 32 - 17 - - 1017.6 -
30/02:00am 22.7 - - - - ESE 33 39 18 21 1017.8 - -
30/01:30am 22.4 - - - - SE 33 39 18 21 1017.9 - -
30/01:20am 22.2 - - - - SE 30 - 16 - - 1017.9 -
30/01:00am 22.2 - - - - SE 30 35 16 19 1018.2 - -
30/12:30am 22.1 - - - - SE 30 35 16 19 1018.5 - -
30/12:20am 22.1 - - - - SE 28 - 15 - - 1018.5 -
30/12:00am 22.2 - - - - SE 32 35 17 19 1018.7 - -
 
Date/Time
EST
Temp
°C
App
Temp
°C
Dew
Point
Rel
Hum
%
Delta-T
°C
Wind Press
QNH
hPa
Press
MSL
hPa
Rain
since 9 am
mm
Dir
 
Spd
km/h
Gust
km/h
Spd
kts
Gust
kts
29/11:30pm 22.2 - - - - SE 30 33 16 18 1018.9 - -
29/11:20pm 22.2 - - - - SE 32 - 17 - - 1018.8 -
29/11:00pm 22.3 - - - - SE 28 32 15 17 1019.0 - -
29/10:30pm 22.4 - - - - SE 28 33 15 18 1019.1 - -
29/10:20pm 22.5 - - - - ESE 28 - 15 - - 1019.0 -
29/10:00pm 22.7 - - - - E 24 28 13 15 1019.2 - -
29/09:30pm 22.8 - - - - E 32 37 17 20 1019.2 - -
29/09:20pm 22.6 - - - - E 28 - 15 - - 1019.1 -
29/09:00pm 22.6 - - - - ESE 28 33 15 18 1019.2 - -
29/08:30pm 22.6 - - - - E 28 35 15 19 1019.0 - -
29/08:20pm 22.5 - - - - ESE 30 - 16 - - 1018.8 -
29/08:00pm 22.4 - - - - E 30 41 16 22 1018.6 - -
29/07:30pm 22.4 - - - - E 32 39 17 21 1018.2 - -
29/07:20pm 22.3 - - - - ESE 30 - 16 - - 1017.9 -
29/07:00pm 22.3 - - - - ESE 32 37 17 20 1017.9 - -
29/06:30pm 22.1 - - - - ESE 32 37 17 20 1017.7 - -
29/06:20pm 22.1 - - - - SE 32 - 17 - - 1017.4 -
29/06:00pm 22.1 - - - - ESE 35 43 19 23 1017.2 - -
29/05:30pm 22.1 - - - - SE 35 41 19 22 1016.8 - -
29/05:20pm 22.3 - - - - SE 35 - 19 - - 1016.6 -
29/05:00pm 22.2 - - - - SE 35 41 19 22 1016.7 - -
29/04:30pm 22.4 - - - - SE 32 37 17 20 1016.5 - -
29/04:20pm 22.4 - - - - SE 33 - 18 - - 1016.4 -
29/04:00pm 22.3 - - - - SE 32 37 17 20 1016.5 - -
29/03:30pm 22.6 - - - - SE 33 39 18 21 1016.5 - -
29/03:20pm 22.5 - - - - SE 33 - 18 - - 1016.4 -
29/03:00pm 22.5 - - - - SE 32 37 17 20 1016.6 - -
29/02:30pm 22.6 - - - - SE 32 35 17 19 1016.7 - -
29/02:20pm 22.6 - - - - SE 32 - 17 - - 1016.7 -
29/02:00pm 22.6 - - - - SE 32 35 17 19 1017.0 - -
29/01:30pm 22.8 - - - - SE 32 35 17 19 1017.4 - -
29/01:20pm 22.7 - - - - SE 32 - 17 - - 1017.3 -
29/01:00pm 22.7 - - - - SE 33 37 18 20 1017.7 - -
29/12:30pm 22.7 - - - - SE 33 39 18 21 1017.9 - -
29/12:20pm 22.7 - - - - SE 33 - 18 - - 1017.8 -

Other Formats:

Comma delimited format used in spreadsheet applications
http://www.bom.gov.au/fwo/IDQ60801/IDQ60801.94371.axf

JavaScript Object Notation format (JSON) in row-major order
http://www.bom.gov.au/fwo/IDQ60801/IDQ60801.94371.json